Time;durP1;ratioP1;P1;durP2;ratioP2;P2;SDS_P1;SDS_P2;PMS_P1;PMS_P2;Temp;Humidity;BMP_temperature;BMP_pressure;BME280_temperature;BME280_humidity;BME280_pressure;Samples;Min_cycle;Max_cycle;Signal;HPM_P1;HPM_P2
2024/03/03 00:00:15;;;;;;;3.75;1.13;;;11.50;99.90;;;;;;4994786;28;20062;-77
2024/03/03 00:02:41;;;;;;;3.08;1.20;;;11.50;99.90;;;;;;4993144;28;20447;-78
2024/03/03 00:05:07;;;;;;;2.63;1.17;;;11.50;99.90;;;;;;4994241;28;20033;-77
2024/03/03 00:07:32;;;;;;;2.95;1.10;;;11.40;99.90;;;;;;4994304;28;20030;-77
2024/03/03 00:09:58;;;;;;;2.92;1.17;;;11.50;99.90;;;;;;4992593;28;20027;-77
2024/03/03 00:12:23;;;;;;;4.40;1.30;;;11.50;99.90;;;;;;4991002;28;20145;-77
2024/03/03 00:14:49;;;;;;;4.97;2.20;;;11.50;99.90;;;;;;4990850;28;20042;-77
2024/03/03 00:17:15;;;;;;;4.20;1.08;;;11.50;99.90;;;;;;4997804;28;20045;-77
2024/03/03 00:19:41;;;;;;;4.60;1.25;;;11.50;99.90;;;;;;4991781;28;20026;-77
2024/03/03 00:22:07;;;;;;;3.92;1.17;;;11.50;99.90;;;;;;4989550;28;20495;-77
2024/03/03 00:24:33;;;;;;;2.58;1.23;;;11.50;99.90;;;;;;4995573;28;20030;-77
2024/03/03 00:26:58;;;;;;;2.58;1.10;;;11.40;99.90;;;;;;4992909;28;20686;-77
2024/03/03 00:29:24;;;;;;;4.35;1.70;;;11.30;99.90;;;;;;5003533;28;20054;-77
2024/03/03 00:31:50;;;;;;;2.85;1.40;;;11.20;99.90;;;;;;5007302;28;20077;-77
2024/03/03 00:34:15;;;;;;;3.92;1.60;;;11.20;99.90;;;;;;4992839;28;20081;-79
2024/03/03 00:36:41;;;;;;;3.35;1.38;;;11.20;99.90;;;;;;4992484;28;20038;-77
2024/03/03 00:39:07;;;;;;;3.53;1.65;;;11.20;99.90;;;;;;4992129;28;20026;-77
2024/03/03 00:41:32;;;;;;;4.93;1.60;;;11.20;99.90;;;;;;4991364;28;20069;-77
2024/03/03 00:43:58;;;;;;;5.97;1.52;;;11.30;99.90;;;;;;4992833;28;20057;-77
2024/03/03 00:46:24;;;;;;;3.15;1.35;;;11.30;99.90;;;;;;4975979;28;20101;-77
2024/03/03 00:48:49;;;;;;;3.17;1.45;;;11.30;99.90;;;;;;4992435;28;20403;-79
2024/03/03 00:51:15;;;;;;;5.28;1.98;;;11.40;99.90;;;;;;4991544;28;20030;-77
2024/03/03 00:53:40;;;;;;;3.33;1.48;;;11.40;99.90;;;;;;4990820;28;20022;-77
2024/03/03 00:56:06;;;;;;;5.07;1.55;;;11.40;99.90;;;;;;4976974;28;20070;-78
2024/03/03 00:58:32;;;;;;;3.40;1.60;;;11.40;99.90;;;;;;4980668;28;20030;-77
2024/03/03 01:00:57;;;;;;;2.30;1.10;;;11.40;99.90;;;;;;4992506;28;20027;-77
2024/03/03 01:03:23;;;;;;;3.25;1.52;;;11.40;99.90;;;;;;4991362;28;20022;-77
2024/03/03 01:05:48;;;;;;;3.72;1.60;;;11.40;99.90;;;;;;4982030;28;20030;-77
2024/03/03 01:08:14;;;;;;;3.15;1.75;;;11.40;99.90;;;;;;4984602;28;20501;-77
2024/03/03 01:10:40;;;;;;;6.50;1.95;;;11.40;99.90;;;;;;4983544;28;20580;-77
2024/03/03 01:13:05;;;;;;;4.22;1.80;;;11.40;99.90;;;;;;4976493;28;20034;-77
2024/03/03 01:15:31;;;;;;;4.25;1.70;;;11.50;99.90;;;;;;4990256;28;20030;-77
2024/03/03 01:17:56;;;;;;;4.28;1.98;;;11.50;99.90;;;;;;4992102;28;20022;-78
2024/03/03 01:20:22;;;;;;;4.57;2.67;;;11.40;99.90;;;;;;4992090;28;20034;-76
2024/03/03 01:22:48;;;;;;;4.85;2.45;;;11.40;99.90;;;;;;4990297;28;20034;-77
2024/03/03 01:25:14;;;;;;;4.35;2.20;;;11.40;99.90;;;;;;4991055;28;20026;-77
2024/03/03 01:27:40;;;;;;;5.40;2.22;;;11.40;99.90;;;;;;4992463;28;20371;-77
2024/03/03 01:30:06;;;;;;;4.05;2.55;;;11.40;99.90;;;;;;4992776;28;20038;-77
2024/03/03 01:32:32;;;;;;;4.47;2.30;;;11.40;99.90;;;;;;4989286;28;20454;-77
2024/03/03 01:34:58;;;;;;;4.78;2.50;;;11.40;99.90;;;;;;4989602;28;20448;-77
2024/03/03 01:37:23;;;;;;;6.50;2.58;;;11.30;99.90;;;;;;4998243;28;20033;-77
2024/03/03 01:39:49;;;;;;;4.30;2.25;;;11.30;99.90;;;;;;5011826;28;20069;-77
2024/03/03 01:42:15;;;;;;;4.13;2.60;;;11.30;99.90;;;;;;5008216;28;20021;-78
2024/03/03 01:44:40;;;;;;;6.57;3.35;;;11.20;99.90;;;;;;4993403;28;20106;-78
2024/03/03 01:47:09;;;;;;;5.05;2.55;;;11.20;99.90;;;;;;4990763;28;20037;-78
2024/03/03 01:49:36;;;;;;;5.07;2.58;;;11.20;99.90;;;;;;4972787;28;20051;-77
2024/03/03 01:52:04;;;;;;;4.55;2.60;;;11.20;99.90;;;;;;4982369;28;20030;-77
2024/03/03 01:54:31;;;;;;;5.50;2.40;;;11.10;99.90;;;;;;4995023;28;20117;-77
2024/03/03 01:56:57;;;;;;;4.50;2.53;;;11.10;99.90;;;;;;4991546;28;20058;-77
2024/03/03 01:59:23;;;;;;;5.05;2.72;;;11.10;99.90;;;;;;4991236;28;20390;-78
2024/03/03 02:01:49;;;;;;;6.10;2.95;;;11.10;99.90;;;;;;4995154;28;20058;-77
2024/03/03 02:04:15;;;;;;;4.72;2.40;;;11.00;99.90;;;;;;4988268;28;20068;-77
2024/03/03 02:06:42;;;;;;;5.13;2.33;;;11.00;99.90;;;;;;4992084;28;20390;-77
2024/03/03 02:09:08;;;;;;;7.45;2.85;;;11.00;99.90;;;;;;4993975;28;20030;-77
2024/03/03 02:11:34;;;;;;;14.30;7.57;;;10.90;99.90;;;;;;4991860;28;20054;-77
2024/03/03 02:14:00;;;;;;;5.85;3.22;;;10.90;99.90;;;;;;5000105;28;20077;-77
2024/03/03 02:16:25;;;;;;;5.05;3.42;;;10.80;99.90;;;;;;5003791;28;20061;-77
2024/03/03 02:18:51;;;;;;;4.57;2.83;;;10.80;99.90;;;;;;5010841;28;20062;-77
2024/03/03 02:21:23;;;;;;;3.90;2.80;;;10.80;99.90;;;;;;4996811;28;20445;-77
2024/03/03 02:23:49;;;;;;;5.78;2.63;;;10.70;99.90;;;;;;4990019;28;20077;-77
2024/03/03 02:26:17;;;;;;;5.32;3.30;;;10.70;99.90;;;;;;4990435;28;20430;-77
2024/03/03 02:28:44;;;;;;;6.38;2.90;;;10.70;99.90;;;;;;4990960;28;20103;-77
2024/03/03 02:31:09;;;;;;;4.95;2.65;;;10.60;99.90;;;;;;4991289;28;20022;-77
2024/03/03 02:33:35;;;;;;;5.50;3.15;;;10.70;99.90;;;;;;4988730;28;20117;-77
2024/03/03 02:36:00;;;;;;;5.18;3.17;;;10.60;99.90;;;;;;4990273;28;20031;-77
2024/03/03 02:38:26;;;;;;;6.53;3.42;;;10.60;99.90;;;;;;4991622;28;20372;-78
2024/03/03 02:40:52;;;;;;;6.40;3.53;;;10.60;99.90;;;;;;4989255;28;20045;-77
2024/03/03 02:43:17;;;;;;;4.57;2.95;;;10.60;99.90;;;;;;4992313;28;20023;-77
2024/03/03 02:45:43;;;;;;;7.78;3.47;;;10.60;99.90;;;;;;4998806;28;20153;-77
2024/03/03 02:48:08;;;;;;;5.30;3.00;;;10.50;99.90;;;;;;4998318;28;20056;-77
2024/03/03 02:50:34;;;;;;;6.68;3.83;;;10.50;99.90;;;;;;4995277;28;20038;-77
2024/03/03 02:52:59;;;;;;;8.40;4.25;;;10.50;99.90;;;;;;4994139;28;20034;-76
2024/03/03 02:55:25;;;;;;;6.80;4.30;;;10.40;99.90;;;;;;4997622;28;20037;-77
2024/03/03 02:57:51;;;;;;;6.32;3.70;;;10.30;99.90;;;;;;4994588;28;20604;-77
2024/03/03 03:00:16;;;;;;;6.43;4.35;;;10.20;99.90;;;;;;4994905;28;20096;-77
2024/03/03 03:02:42;;;;;;;7.32;3.60;;;10.20;99.90;;;;;;4998850;28;20027;-77
2024/03/03 03:05:09;;;;;;;6.05;3.22;;;10.10;99.90;;;;;;4994312;28;20037;-77
2024/03/03 03:07:35;;;;;;;5.65;3.30;;;10.00;99.90;;;;;;5004487;28;20101;-77
2024/03/03 03:10:01;;;;;;;5.78;3.00;;;9.90;99.90;;;;;;4992419;28;20122;-77
2024/03/03 03:12:26;;;;;;;6.72;3.78;;;9.90;99.90;;;;;;5005413;28;20030;-77
2024/03/03 03:14:52;;;;;;;6.40;3.47;;;9.90;99.90;;;;;;4996677;28;20034;-77
2024/03/03 03:17:17;;;;;;;7.20;3.83;;;9.80;99.90;;;;;;4984452;28;20031;-76
2024/03/03 03:19:46;;;;;;;5.22;3.17;;;9.80;99.90;;;;;;4993439;28;20038;-77
2024/03/03 03:22:13;;;;;;;7.03;4.28;;;9.80;99.90;;;;;;4993352;28;20029;-77
2024/03/03 03:24:39;;;;;;;7.95;4.13;;;9.80;99.90;;;;;;4994832;28;20022;-77
2024/03/03 03:27:05;;;;;;;7.80;4.28;;;9.80;99.90;;;;;;5002649;28;20041;-78
2024/03/03 03:29:31;;;;;;;7.85;4.32;;;9.90;99.90;;;;;;4993752;28;20062;-77
2024/03/03 03:31:56;;;;;;;10.05;5.20;;;9.90;99.90;;;;;;5003940;28;20109;-77
2024/03/03 03:34:22;;;;;;;7.97;4.53;;;9.80;99.90;;;;;;5003324;28;20045;-77
2024/03/03 03:36:47;;;;;;;7.55;3.72;;;9.90;99.90;;;;;;4993053;28;20491;-77
2024/03/03 03:39:13;;;;;;;7.95;4.90;;;9.90;99.90;;;;;;4993571;28;20038;-77
2024/03/03 03:41:49;;;;;;;8.25;4.78;;;9.90;99.90;;;;;;4994247;28;20121;-77
2024/03/03 03:44:16;;;;;;;8.90;5.78;;;9.90;99.90;;;;;;4993796;28;20030;-76
2024/03/03 03:46:42;;;;;;;8.68;5.00;;;9.80;99.90;;;;;;4993269;28;20116;-78
2024/03/03 03:49:11;;;;;;;8.02;4.60;;;9.80;99.90;;;;;;5001231;28;20533;-77
2024/03/03 03:51:40;;;;;;;9.07;4.72;;;9.80;99.90;;;;;;5003062;28;20112;-77
2024/03/03 03:54:06;;;;;;;6.88;4.80;;;9.70;99.90;;;;;;4992750;28;20050;-77
2024/03/03 03:56:33;;;;;;;7.95;5.22;;;9.80;99.90;;;;;;4992684;28;20054;-77
2024/03/03 03:59:00;;;;;;;7.82;4.93;;;9.80;99.90;;;;;;4992510;28;20422;-77
2024/03/03 04:01:27;;;;;;;9.05;5.55;;;9.70;99.90;;;;;;5012954;28;20623;-77
2024/03/03 04:03:54;;;;;;;11.95;5.65;;;9.70;99.90;;;;;;5002726;28;20030;-78
2024/03/03 04:06:21;;;;;;;8.15;5.18;;;9.70;99.90;;;;;;4997345;28;20058;-77
2024/03/03 04:08:46;;;;;;;11.48;5.65;;;9.70;99.90;;;;;;4984831;28;20031;-77
2024/03/03 04:11:12;;;;;;;8.88;5.93;;;9.70;99.90;;;;;;4992138;28;20105;-77
2024/03/03 04:13:38;;;;;;;9.85;6.13;;;9.60;99.90;;;;;;4993015;28;20030;-77
2024/03/03 04:16:06;;;;;;;9.40;5.15;;;9.50;99.90;;;;;;4993848;28;20026;-77
2024/03/03 04:18:32;;;;;;;8.35;5.15;;;9.40;99.90;;;;;;4982258;28;20018;-77
2024/03/03 04:20:57;;;;;;;8.93;5.57;;;9.40;99.90;;;;;;4992807;28;20022;-77
2024/03/03 04:23:23;;;;;;;9.98;5.50;;;9.40;99.90;;;;;;4990847;28;20039;-77
2024/03/03 04:25:49;;;;;;;9.98;5.75;;;9.40;99.90;;;;;;4991794;28;20037;-77
2024/03/03 04:28:14;;;;;;;9.40;5.78;;;9.30;99.90;;;;;;4976744;28;20038;-77
2024/03/03 04:30:40;;;;;;;10.35;5.55;;;9.20;99.90;;;;;;4993146;28;20158;-77
2024/03/03 04:33:05;;;;;;;9.60;5.68;;;9.20;99.90;;;;;;5003220;28;20038;-77
2024/03/03 04:35:31;;;;;;;9.38;5.78;;;9.20;99.90;;;;;;4988479;28;20038;-79
2024/03/03 04:37:56;;;;;;;9.90;5.53;;;9.20;99.90;;;;;;4996206;28;20106;-77
2024/03/03 04:40:22;;;;;;;9.35;5.70;;;9.20;99.90;;;;;;4982714;28;20029;-77
2024/03/03 04:42:48;;;;;;;9.02;5.32;;;9.10;99.90;;;;;;4990091;28;20069;-77
2024/03/03 04:45:14;;;;;;;9.10;5.55;;;9.10;99.90;;;;;;4989019;28;20082;-77
2024/03/03 04:47:40;;;;;;;12.40;6.38;;;9.10;99.90;;;;;;4986662;28;20077;-77
2024/03/03 04:50:07;;;;;;;12.07;6.75;;;9.10;99.90;;;;;;4989208;28;20108;-76
2024/03/03 04:52:37;;;;;;;9.57;5.70;;;9.10;99.90;;;;;;4992003;28;20025;-77
2024/03/03 04:55:03;;;;;;;9.68;5.63;;;9.10;99.90;;;;;;4987314;28;20054;-76
2024/03/03 04:57:30;;;;;;;9.60;5.88;;;9.20;99.90;;;;;;4999271;28;20486;-77
2024/03/03 04:59:55;;;;;;;9.75;5.57;;;9.20;99.90;;;;;;4991512;28;20036;-77
2024/03/03 05:02:21;;;;;;;8.65;5.40;;;9.20;99.90;;;;;;4991127;28;20030;-77
2024/03/03 05:04:47;;;;;;;10.23;5.38;;;9.20;99.90;;;;;;4991955;28;20026;-77
2024/03/03 05:07:12;;;;;;;11.82;6.13;;;9.20;99.90;;;;;;4988392;28;20085;-77
2024/03/03 05:09:38;;;;;;;10.35;5.97;;;9.20;99.90;;;;;;4991898;28;20041;-77
2024/03/03 05:12:05;;;;;;;12.23;6.30;;;9.20;99.90;;;;;;4988490;28;20026;-77
2024/03/03 05:14:31;;;;;;;9.68;5.35;;;9.20;99.90;;;;;;4986626;28;20408;-77
2024/03/03 05:16:56;;;;;;;9.95;5.85;;;9.20;99.90;;;;;;4983913;28;20049;-77
2024/03/03 05:19:23;;;;;;;9.65;5.38;;;9.20;99.90;;;;;;4986646;28;20531;-78
2024/03/03 05:21:49;;;;;;;9.60;5.80;;;9.20;99.90;;;;;;4987076;28;20026;-77
2024/03/03 05:24:16;;;;;;;8.45;5.35;;;9.30;99.90;;;;;;4994088;28;20033;-75
2024/03/03 05:26:43;;;;;;;10.38;5.68;;;9.30;99.90;;;;;;4977673;28;20023;-76
2024/03/03 05:29:09;;;;;;;8.60;5.20;;;9.40;99.90;;;;;;4987624;28;20019;-76
2024/03/03 05:31:41;;;;;;;6.97;4.72;;;9.50;99.90;;;;;;4990752;28;20022;-77
2024/03/03 05:34:12;;;;;;;;;;;9.60;99.90;;;;;;4991293;28;20038;-77
2024/03/03 05:36:46;;;;;;;9.20;5.65;;;9.60;99.90;;;;;;4986199;28;20314;-77
2024/03/03 05:39:13;;;;;;;9.95;5.80;;;9.60;99.90;;;;;;4990709;28;20038;-77
2024/03/03 05:41:39;;;;;;;10.63;5.65;;;9.60;99.90;;;;;;5001030;28;20100;-77
2024/03/03 05:44:07;;;;;;;9.95;5.80;;;9.70;99.90;;;;;;4987837;28;20024;-78
2024/03/03 05:46:39;;;;;;;9.55;5.30;;;9.70;99.90;;;;;;4989674;28;20471;-78
2024/03/03 05:49:05;;;;;;;10.15;5.40;;;9.70;99.90;;;;;;4990349;28;20042;-78
2024/03/03 05:51:31;;;;;;;13.02;6.57;;;9.70;99.90;;;;;;4994620;28;20057;-79
2024/03/03 05:53:56;;;;;;;8.80;5.22;;;9.70;99.90;;;;;;4991578;28;20026;-77
2024/03/03 05:56:22;;;;;;;10.77;5.82;;;9.70;99.90;;;;;;4995083;28;20034;-78
2024/03/03 05:58:47;;;;;;;9.70;5.65;;;9.80;99.90;;;;;;4996382;28;20513;-77
2024/03/03 06:01:13;;;;;;;10.18;5.90;;;9.80;99.90;;;;;;5000018;28;20102;-78
2024/03/03 06:03:39;;;;;;;9.85;5.65;;;9.80;99.90;;;;;;4987991;28;20114;-77
2024/03/03 06:06:06;;;;;;;10.45;6.18;;;9.80;99.90;;;;;;4988645;28;20030;-78
2024/03/03 06:08:32;;;;;;;10.75;6.30;;;9.80;99.90;;;;;;4994074;28;20071;-77
2024/03/03 06:10:57;;;;;;;12.00;6.88;;;9.80;99.90;;;;;;4990659;28;20423;-77
2024/03/03 06:13:23;;;;;;;10.32;6.95;;;9.80;99.90;;;;;;4990486;28;20069;-78
2024/03/03 06:15:51;;;;;;;11.00;5.75;;;9.80;99.90;;;;;;5000953;28;20142;-78
2024/03/03 06:18:17;;;;;;;12.75;7.40;;;9.70;99.90;;;;;;4991273;28;20053;-77
2024/03/03 06:20:46;;;;;;;12.10;7.10;;;9.70;99.90;;;;;;5003226;28;20522;-77
2024/03/03 06:23:11;;;;;;;12.00;6.30;;;9.70;99.90;;;;;;4990717;28;20771;-77
2024/03/03 06:25:37;;;;;;;10.30;6.40;;;9.70;99.90;;;;;;4990354;28;20034;-77
2024/03/03 06:28:02;;;;;;;9.73;6.10;;;9.70;99.90;;;;;;5000126;28;20491;-78
2024/03/03 06:30:28;;;;;;;13.30;6.18;;;9.70;99.90;;;;;;4989424;28;20027;-77
2024/03/03 06:32:54;;;;;;;11.02;5.88;;;9.70;99.90;;;;;;4992050;28;20030;-78
2024/03/03 06:35:19;;;;;;;10.30;6.00;;;9.70;99.90;;;;;;4992061;28;20047;-78
2024/03/03 06:37:48;;;;;;;10.05;6.13;;;9.70;99.90;;;;;;4991012;28;20104;-78
2024/03/03 06:40:14;;;;;;;13.32;6.72;;;9.70;99.90;;;;;;4996738;28;20112;-77
2024/03/03 06:42:40;;;;;;;11.35;6.05;;;9.70;99.90;;;;;;4987485;28;20105;-77
2024/03/03 06:45:07;;;;;;;10.65;6.72;;;9.70;99.90;;;;;;4979218;28;20026;-76
2024/03/03 06:47:33;;;;;;;8.98;5.18;;;9.70;99.90;;;;;;4989843;28;20027;-77
2024/03/03 06:50:02;;;;;;;10.88;6.68;;;9.60;99.90;;;;;;4998280;28;20507;-78
2024/03/03 06:52:30;;;;;;;11.88;6.40;;;9.60;99.90;;;;;;4991393;28;20402;-77
2024/03/03 06:54:57;;;;;;;14.05;7.38;;;9.60;99.90;;;;;;4989656;28;20038;-77
2024/03/03 06:57:22;;;;;;;11.75;6.20;;;9.70;99.90;;;;;;4994613;28;20033;-77
2024/03/03 06:59:48;;;;;;;11.50;5.93;;;9.70;99.90;;;;;;4998278;28;20406;-77
2024/03/03 07:02:14;;;;;;;10.40;6.97;;;9.70;99.90;;;;;;5002842;28;20089;-77
2024/03/03 07:04:39;;;;;;;11.02;6.25;;;9.70;99.90;;;;;;5007079;28;20030;-76
2024/03/03 07:07:05;;;;;;;12.00;6.30;;;9.70;99.90;;;;;;4990295;28;20027;-77
2024/03/03 07:09:31;;;;;;;10.27;6.50;;;9.70;99.90;;;;;;4986416;28;20058;-76
2024/03/03 07:11:57;;;;;;;11.00;6.22;;;9.70;99.90;;;;;;4990046;28;20217;-77
2024/03/03 07:14:25;;;;;;;11.30;6.45;;;9.70;99.90;;;;;;4985300;28;20050;-77
2024/03/03 07:16:51;;;;;;;12.65;6.30;;;9.80;99.90;;;;;;4993984;28;20371;-77
2024/03/03 07:19:17;;;;;;;10.38;6.15;;;9.80;99.90;;;;;;4991493;28;20097;-76
2024/03/03 07:21:43;;;;;;;11.68;5.82;;;9.80;99.90;;;;;;4987095;28;20029;-77
2024/03/03 07:24:09;;;;;;;11.25;6.10;;;9.90;99.90;;;;;;4994367;28;20030;-77
2024/03/03 07:26:36;;;;;;;13.13;6.47;;;9.90;99.90;;;;;;4988899;28;20072;-76
2024/03/03 07:29:03;;;;;;;10.68;6.20;;;10.00;99.90;;;;;;4993600;28;20037;-76
2024/03/03 07:31:31;;;;;;;10.68;6.13;;;10.00;99.90;;;;;;4980856;28;20117;-77
2024/03/03 07:33:56;;;;;;;13.25;6.80;;;10.10;99.90;;;;;;4980364;28;20038;-77
2024/03/03 07:36:22;;;;;;;11.93;7.07;;;10.10;99.90;;;;;;4993617;28;20494;-77
2024/03/03 07:38:48;;;;;;;8.98;5.88;;;10.20;99.90;;;;;;4997300;28;20031;-77
2024/03/03 07:41:13;;;;;;;13.02;6.80;;;10.20;99.90;;;;;;4985134;28;20034;-79
2024/03/03 07:43:39;;;;;;;10.75;6.57;;;10.30;99.90;;;;;;4991455;28;20037;-76
2024/03/03 07:46:05;;;;;;;11.85;6.22;;;10.40;99.90;;;;;;5003324;28;20372;-76
2024/03/03 07:48:31;;;;;;;12.05;6.38;;;10.40;99.90;;;;;;4998312;28;20388;-77
2024/03/03 07:50:57;;;;;;;11.05;6.00;;;10.40;99.90;;;;;;4978610;28;20936;-75
2024/03/03 07:53:23;;;;;;;12.18;6.95;;;10.40;99.90;;;;;;4988720;28;20033;-76
2024/03/03 07:55:48;;;;;;;10.93;5.53;;;10.50;99.90;;;;;;5007481;28;20034;-76
2024/03/03 07:58:14;;;;;;;13.60;6.97;;;10.50;99.90;;;;;;4988471;28;20042;-76
2024/03/03 08:00:40;;;;;;;11.50;6.75;;;10.60;99.90;;;;;;4995096;28;20058;-77
2024/03/03 08:03:07;;;;;;;13.60;6.40;;;10.70;99.90;;;;;;4992253;28;20029;-77
2024/03/03 08:05:33;;;;;;;11.88;7.60;;;10.80;99.90;;;;;;4984310;28;20031;-75
2024/03/03 08:08:00;;;;;;;12.50;6.90;;;10.90;99.90;;;;;;4986439;28;20023;-76
2024/03/03 08:10:26;;;;;;;14.65;7.53;;;11.00;99.90;;;;;;4994900;28;20030;-76
2024/03/03 08:12:53;;;;;;;10.68;6.63;;;11.10;99.90;;;;;;4991935;28;20458;-76
2024/03/03 08:15:20;;;;;;;11.18;6.57;;;11.30;99.90;;;;;;5003849;28;20046;-77
2024/03/03 08:17:45;;;;;;;13.50;6.72;;;11.40;99.90;;;;;;4996643;28;20097;-78
2024/03/03 08:20:11;;;;;;;11.32;7.22;;;11.50;99.90;;;;;;4997944;28;20105;-77
2024/03/03 08:22:41;;;;;;;11.90;6.60;;;11.60;99.90;;;;;;4993187;28;20035;-78
2024/03/03 08:25:10;;;;;;;11.27;5.65;;;11.80;99.90;;;;;;4990693;28;20031;-76
2024/03/03 08:27:36;;;;;;;10.60;5.90;;;11.90;99.90;;;;;;4991216;28;20018;-77
2024/03/03 08:30:05;;;;;;;11.10;5.70;;;12.00;99.90;;;;;;4989797;28;20497;-75
2024/03/03 08:32:31;;;;;;;11.77;6.53;;;12.00;99.90;;;;;;4990913;28;20048;-77
2024/03/03 08:34:57;;;;;;;9.65;5.68;;;12.10;99.90;;;;;;5000638;28;20031;-78
2024/03/03 08:37:22;;;;;;;8.77;4.97;;;12.10;99.90;;;;;;4988994;28;20033;-78
2024/03/03 08:39:48;;;;;;;9.80;5.88;;;12.20;99.90;;;;;;4991525;28;20121;-77
2024/03/03 08:42:14;;;;;;;10.52;6.18;;;12.20;99.90;;;;;;4992707;28;20014;-77
2024/03/03 08:44:39;;;;;;;11.00;6.38;;;12.30;99.90;;;;;;4993196;28;20027;-78
2024/03/03 08:47:05;;;;;;;11.43;6.93;;;12.40;99.90;;;;;;4996942;28;20127;-78
2024/03/03 08:49:32;;;;;;;14.82;7.63;;;12.30;99.90;;;;;;4991370;28;20050;-77
2024/03/03 08:51:58;;;;;;;9.63;5.53;;;12.40;99.90;;;;;;4976529;28;20034;-77
2024/03/03 08:54:24;;;;;;;11.55;6.90;;;12.40;99.90;;;;;;4991416;28;20387;-78
2024/03/03 08:56:49;;;;;;;12.35;6.00;;;12.40;99.90;;;;;;4997627;28;20022;-78
2024/03/03 08:59:15;;;;;;;10.90;6.03;;;12.40;99.90;;;;;;4991953;28;20030;-78
2024/03/03 09:01:41;;;;;;;12.27;6.38;;;12.50;99.90;;;;;;4993554;28;20030;-80
2024/03/03 09:04:06;;;;;;;9.95;5.85;;;12.50;99.90;;;;;;4991647;28;20030;-78
2024/03/03 09:06:32;;;;;;;10.48;6.15;;;12.60;99.90;;;;;;5006489;28;20022;-79
2024/03/03 09:08:57;;;;;;;9.85;6.50;;;12.60;99.90;;;;;;4984039;28;20038;-79
2024/03/03 09:11:23;;;;;;;9.52;6.30;;;12.70;99.90;;;;;;4990149;28;20018;-77
2024/03/03 09:13:48;;;;;;;11.88;6.53;;;12.70;99.90;;;;;;4990171;28;20022;-79
2024/03/03 09:16:14;;;;;;;10.23;5.85;;;12.80;99.90;;;;;;4991738;28;20030;-79
2024/03/03 09:18:40;;;;;;;9.75;6.20;;;12.80;99.90;;;;;;4991877;28;20037;-78
2024/03/03 09:21:07;;;;;;;13.20;6.82;;;12.80;99.90;;;;;;4989854;28;20030;-79
2024/03/03 09:23:33;;;;;;;11.48;7.10;;;12.80;99.90;;;;;;4988771;28;20174;-79
2024/03/03 09:25:59;;;;;;;11.20;6.88;;;12.90;99.90;;;;;;4991099;28;20109;-79
2024/03/03 09:28:25;;;;;;;13.27;7.97;;;13.00;99.90;;;;;;4992322;28;20037;-78
2024/03/03 09:30:51;;;;;;;10.82;6.85;;;13.00;99.90;;;;;;4991347;28;20026;-78
2024/03/03 09:33:17;;;;;;;10.20;6.63;;;13.10;99.90;;;;;;4991149;28;20037;-78
2024/03/03 09:35:42;;;;;;;14.23;7.28;;;13.10;99.90;;;;;;5005199;28;20038;-77
2024/03/03 09:38:08;;;;;;;12.02;7.18;;;13.10;99.90;;;;;;4986517;28;20030;-77
2024/03/03 09:40:37;;;;;;;14.80;7.95;;;13.20;99.90;;;;;;4990450;28;20471;-78
2024/03/03 09:43:06;;;;;;;13.77;7.43;;;13.30;99.90;;;;;;4986185;28;20025;-77
2024/03/03 09:45:32;;;;;;;16.13;8.30;;;13.30;99.90;;;;;;4984295;28;20057;-76
2024/03/03 09:48:02;;;;;;;13.27;7.15;;;13.40;99.90;;;;;;4984420;28;20108;-76
2024/03/03 09:50:29;;;;;;;14.13;7.65;;;13.50;99.90;;;;;;4982666;28;20049;-77
2024/03/03 09:52:56;;;;;;;13.55;7.43;;;13.60;99.90;;;;;;4988031;28;20026;-76
2024/03/03 09:55:24;;;;;;;11.40;7.53;;;13.70;99.90;;;;;;4984582;28;20494;-78
2024/03/03 10:00:37;;;;;;;15.65;7.93;;;13.90;99.90;;;;;;4980125;28;20058;-86
2024/03/03 10:03:06;;;;;;;12.90;7.53;;;14.00;99.90;;;;;;4965363;28;20474;-87
2024/03/03 10:05:33;;;;;;;12.93;7.80;;;14.10;99.90;;;;;;4978562;28;20029;-87
2024/03/03 10:08:03;;;;;;;12.43;7.18;;;14.20;99.90;;;;;;4974088;28;20164;-87
2024/03/03 10:10:35;;;;;;;12.23;7.50;;;14.30;99.90;;;;;;4985931;28;20026;-86
2024/03/03 10:13:07;;;;;;;13.05;7.88;;;14.30;99.90;;;;;;4981638;28;20019;-87
2024/03/03 10:15:33;;;;;;;13.43;7.77;;;14.30;99.90;;;;;;4971906;28;20066;-86
2024/03/03 10:18:02;;;;;;;12.88;7.57;;;14.30;99.90;;;;;;4989446;28;20281;-86
2024/03/03 10:20:29;;;;;;;14.32;8.40;;;14.40;99.90;;;;;;4958816;28;20434;-86
2024/03/03 10:22:55;;;;;;;12.38;7.88;;;14.40;99.90;;;;;;4985185;28;20068;-86
2024/03/03 10:25:22;;;;;;;13.35;8.20;;;14.40;99.90;;;;;;4988689;28;20027;-87
2024/03/03 10:27:50;;;;;;;13.73;7.60;;;14.40;99.90;;;;;;4975573;28;20062;-86
2024/03/03 10:30:17;;;;;;;14.55;8.20;;;14.60;99.90;;;;;;4976305;28;20063;-86
2024/03/03 10:32:44;;;;;;;13.20;7.65;;;14.50;99.90;;;;;;4965398;28;20060;-87
2024/03/03 10:35:14;;;;;;;12.10;7.55;;;14.60;99.90;;;;;;4956136;28;20035;-86
2024/03/03 10:37:50;;;;;;;13.65;8.05;;;14.60;99.90;;;;;;4959466;28;20029;-86
2024/03/03 10:40:16;;;;;;;13.27;7.50;;;14.70;99.90;;;;;;4974256;28;20483;-86
2024/03/03 10:42:41;;;;;;;10.65;7.45;;;14.80;99.90;;;;;;4983697;28;20039;-86
2024/03/03 10:45:08;;;;;;;12.93;7.30;;;14.80;99.90;;;;;;4988546;28;20048;-86
2024/03/03 10:47:33;;;;;;;11.25;7.53;;;15.00;99.90;;;;;;4990347;28;20177;-87
2024/03/03 10:49:59;;;;;;;11.10;7.45;;;15.10;99.90;;;;;;4967335;28;20109;-86
2024/03/03 10:52:26;;;;;;;12.10;7.75;;;15.20;99.90;;;;;;4965550;28;20088;-87
2024/03/03 10:54:52;;;;;;;11.32;7.22;;;15.20;99.90;;;;;;4964755;28;20035;-87
2024/03/03 10:57:19;;;;;;;11.55;7.57;;;15.10;99.90;;;;;;4971421;28;20114;-85
2024/03/03 10:59:46;;;;;;;12.35;7.30;;;15.20;99.90;;;;;;4965994;28;20077;-87
2024/03/03 11:02:14;;;;;;;10.68;6.60;;;15.30;99.90;;;;;;4979601;28;20436;-87
2024/03/03 11:04:41;;;;;;;11.45;6.82;;;15.40;99.90;;;;;;4972220;28;20042;-86
2024/03/03 11:07:09;;;;;;;12.77;8.02;;;15.40;99.90;;;;;;4961970;28;20026;-87
2024/03/03 11:09:35;;;;;;;11.85;7.05;;;15.50;99.90;;;;;;4972077;28;20490;-87
2024/03/03 11:12:05;;;;;;;12.75;7.85;;;15.60;99.90;;;;;;4977895;28;20030;-86
2024/03/03 11:14:54;;;;;;;14.63;7.70;;;15.70;99.90;;;;;;4963128;28;20034;-85
2024/03/03 11:17:21;;;;;;;12.85;7.43;;;15.70;99.90;;;;;;4979810;28;20026;-85
2024/03/03 11:19:49;;;;;;;13.30;7.53;;;15.80;99.90;;;;;;4961762;28;20202;-86
2024/03/03 11:22:21;;;;;;;11.30;6.85;;;15.90;99.90;;;;;;4982051;28;20088;-86
2024/03/03 11:25:04;;;;;;;9.80;6.55;;;16.00;99.90;;;;;;4980444;28;20044;-85
2024/03/03 11:27:29;;;;;;;;;;;16.10;99.90;;;;;;4965627;28;20057;-86
2024/03/03 11:29:56;;;;;;;10.68;5.97;;;16.00;99.90;;;;;;4967068;28;19969;-87
2024/03/03 11:32:26;;;;;;;9.55;5.78;;;15.90;99.90;;;;;;4964093;28;20026;-86
2024/03/03 11:34:52;;;;;;;8.93;5.25;;;15.90;99.90;;;;;;4967131;28;21742;-86
2024/03/03 11:37:19;;;;;;;10.73;5.25;;;16.10;99.90;;;;;;4980237;28;20298;-86
2024/03/03 11:39:58;;;;;;;9.15;4.90;;;16.30;99.90;;;;;;4959402;28;20034;-86
2024/03/03 11:42:30;;;;;;;8.52;4.85;;;16.60;99.90;;;;;;4980567;28;20509;-87
2024/03/03 11:44:56;;;;;;;10.30;5.32;;;16.70;99.90;;;;;;4980975;28;20033;-86
2024/03/03 11:47:29;;;;;;;9.38;5.57;;;16.90;99.90;;;;;;4977687;28;20043;-86
2024/03/03 11:49:57;;;;;;;8.27;5.38;;;17.00;99.90;;;;;;4963081;28;20376;-87
2024/03/03 11:52:46;;;;;;;8.45;5.25;;;17.10;99.90;;;;;;4965262;28;20026;-86
2024/03/03 11:55:16;;;;;;;9.30;5.55;;;17.00;99.90;;;;;;4963737;28;20049;-86
2024/03/03 11:57:45;;;;;;;11.00;5.82;;;16.80;99.90;;;;;;4976512;28;20509;-86
2024/03/03 12:00:17;;;;;;;6.90;4.38;;;16.70;99.90;;;;;;4981832;28;20058;-86
2024/03/03 12:02:44;;;;;;;9.63;5.53;;;16.60;99.90;;;;;;4986764;28;20390;-87
2024/03/03 12:05:11;;;;;;;8.23;5.38;;;16.60;99.90;;;;;;4979446;28;20034;-86
2024/03/03 12:07:43;;;;;;;8.40;5.32;;;16.40;99.90;;;;;;4966225;28;20081;-87
2024/03/03 12:10:31;;;;;;;8.35;4.82;;;16.30;99.90;;;;;;4979904;28;20622;-86
2024/03/03 12:12:59;;;;;;;9.05;5.10;;;16.20;99.90;;;;;;4981157;28;20054;-85
2024/03/03 12:15:26;;;;;;;10.27;4.70;;;16.10;99.90;;;;;;4986208;28;20145;-86
2024/03/03 12:17:55;;;;;;;9.20;4.97;;;16.10;99.90;;;;;;4969978;28;20030;-86
2024/03/03 12:20:30;;;;;;;10.27;5.82;;;16.10;99.90;;;;;;4975132;28;20102;-87
2024/03/03 12:22:59;;;;;;;9.35;4.85;;;16.20;99.90;;;;;;4970955;28;20121;-87
2024/03/03 12:25:25;;;;;;;8.48;4.65;;;16.10;99.90;;;;;;4991492;28;20381;-86
2024/03/03 12:27:56;;;;;;;9.45;5.68;;;16.20;99.90;;;;;;4969810;28;20121;-86
2024/03/03 12:30:36;;;;;;;9.48;5.00;;;16.20;99.90;;;;;;4960761;28;20054;-86
2024/03/03 12:33:06;;;;;;;8.32;4.55;;;16.20;99.90;;;;;;4966663;28;20038;-84
2024/03/03 12:35:36;;;;;;;7.75;4.75;;;16.20;99.90;;;;;;4978550;28;20113;-86
2024/03/03 12:38:03;;;;;;;7.10;4.20;;;16.40;99.90;;;;;;4959597;28;20055;-84
2024/03/03 12:40:30;;;;;;;9.57;4.10;;;16.40;99.90;;;;;;4959855;28;20027;-87
2024/03/03 12:42:59;;;;;;;8.75;4.30;;;16.40;99.90;;;;;;4959894;28;20058;-86
2024/03/03 12:45:25;;;;;;;7.22;4.47;;;16.40;99.90;;;;;;4981762;28;20116;-86